sensor_id;sensor_type;location;lat;lon;timestamp;pressure;altitude;pressure_sealevel;temperature;humidity
64862;BME280;62652;42.274;-71.436;2023-04-26T00:00:01;101490.0;;;10.999999999999998;100.0
64862;BME280;62652;42.274;-71.436;2023-04-26T00:01:01;101490.0;;;10.999999999999998;100.0
64862;BME280;62652;42.274;-71.436;2023-04-26T00:02:01;101500.0;;;10.999999999999998;100.0
64862;BME280;62652;42.274;-71.436;2023-04-26T00:03:01;101500.0;;;10.999999999999998;100.0
64862;BME280;62652;42.274;-71.436;2023-04-26T00:04:00;101500.0;;;10.88888888888889;100.0
64862;BME280;62652;42.274;-71.436;2023-04-26T00:05:00;101500.0;;;10.777777777777779;100.0
64862;BME280;62652;42.274;-71.436;2023-04-26T00:06:00;101500.0;;;10.777777777777779;100.0
64862;BME280;62652;42.274;-71.436;2023-04-26T00:07:00;101500.0;;;10.88888888888889;100.0
64862;BME280;62652;42.274;-71.436;2023-04-26T00:08:00;101500.0;;;10.88888888888889;100.0
64862;BME280;62652;42.274;-71.436;2023-04-26T00:09:01;101500.0;;;10.777777777777779;100.0
64862;BME280;62652;42.274;-71.436;2023-04-26T00:10:00;101500.0;;;10.777777777777779;100.0
64862;BME280;62652;42.274;-71.436;2023-04-26T00:11:00;101500.0;;;10.61111111111111;100.0
64862;BME280;62652;42.274;-71.436;2023-04-26T00:12:01;101500.0;;;10.61111111111111;100.0
64862;BME280;62652;42.274;-71.436;2023-04-26T00:13:01;101500.0;;;10.61111111111111;100.0
64862;BME280;62652;42.274;-71.436;2023-04-26T00:14:00;101500.0;;;10.388888888888891;100.0
64862;BME280;62652;42.274;-71.436;2023-04-26T00:15:00;101510.0;;;10.277777777777779;100.0
64862;BME280;62652;42.274;-71.436;2023-04-26T00:16:00;101500.0;;;10.277777777777779;100.0
64862;BME280;62652;42.274;-71.436;2023-04-26T00:17:00;101500.0;;;10.111111111111112;100.0
64862;BME280;62652;42.274;-71.436;2023-04-26T00:18:01;101500.0;;;10.111111111111112;100.0
64862;BME280;62652;42.274;-71.436;2023-04-26T00:19:00;101500.0;;;10.111111111111112;100.0
64862;BME280;62652;42.274;-71.436;2023-04-26T00:20:01;101500.0;;;10.222222222222221;100.0
64862;BME280;62652;42.274;-71.436;2023-04-26T00:21:01;101500.0;;;10.222222222222221;100.0
64862;BME280;62652;42.274;-71.436;2023-04-26T00:22:01;101510.0;;;10.222222222222221;100.0
64862;BME280;62652;42.274;-71.436;2023-04-26T00:23:00;101510.0;;;10.222222222222221;100.0
64862;BME280;62652;42.274;-71.436;2023-04-26T00:24:01;101510.0;;;10.222222222222221;100.0
64862;BME280;62652;42.274;-71.436;2023-04-26T00:25:01;101520.0;;;10.222222222222221;100.0
64862;BME280;62652;42.274;-71.436;2023-04-26T00:26:00;101520.0;;;10.222222222222221;100.0
64862;BME280;62652;42.274;-71.436;2023-04-26T00:27:01;101520.0;;;10.222222222222221;100.0
64862;BME280;62652;42.274;-71.436;2023-04-26T00:28:01;101520.0;;;10.222222222222221;100.0
64862;BME280;62652;42.274;-71.436;2023-04-26T00:29:01;101520.0;;;10.277777777777779;100.0
64862;BME280;62652;42.274;-71.436;2023-04-26T00:30:00;101520.0;;;10.222222222222221;100.0
64862;BME280;62652;42.274;-71.436;2023-04-26T00:31:00;101530.0;;;10.222222222222221;100.0
64862;BME280;62652;42.274;-71.436;2023-04-26T00:32:01;101530.0;;;10.111111111111112;100.0
64862;BME280;62652;42.274;-71.436;2023-04-26T00:33:00;101530.0;;;10.111111111111112;100.0
64862;BME280;62652;42.274;-71.436;2023-04-26T00:34:00;101530.0;;;10.111111111111112;100.0
64862;BME280;62652;42.274;-71.436;2023-04-26T00:35:03;101540.0;;;10.0;100.0
64862;BME280;62652;42.274;-71.436;2023-04-26T00:36:00;101540.0;;;10.111111111111112;100.0
64862;BME280;62652;42.274;-71.436;2023-04-26T00:37:01;101550.0;;;10.111111111111112;100.0
64862;BME280;62652;42.274;-71.436;2023-04-26T00:38:00;101560.0;;;10.111111111111112;100.0
64862;BME280;62652;42.274;-71.436;2023-04-26T00:39:00;101560.0;;;10.111111111111112;100.0
64862;BME280;62652;42.274;-71.436;2023-04-26T00:40:00;101560.0;;;10.111111111111112;100.0
64862;BME280;62652;42.274;-71.436;2023-04-26T00:41:01;101560.0;;;10.111111111111112;100.0
64862;BME280;62652;42.274;-71.436;2023-04-26T00:42:00;101560.0;;;10.111111111111112;100.0
64862;BME280;62652;42.274;-71.436;2023-04-26T00:43:01;101560.0;;;10.222222222222221;100.0
64862;BME280;62652;42.274;-71.436;2023-04-26T00:44:01;101560.0;;;10.222222222222221;100.0
64862;BME280;62652;42.274;-71.436;2023-04-26T00:45:01;101560.0;;;10.222222222222221;100.0
64862;BME280;62652;42.274;-71.436;2023-04-26T00:46:01;101560.0;;;10.222222222222221;100.0
64862;BME280;62652;42.274;-71.436;2023-04-26T00:47:00;101550.0;;;10.222222222222221;100.0
64862;BME280;62652;42.274;-71.436;2023-04-26T00:48:02;101560.0;;;10.222222222222221;100.0
64862;BME280;62652;42.274;-71.436;2023-04-26T00:49:01;101560.0;;;10.222222222222221;100.0
64862;BME280;62652;42.274;-71.436;2023-04-26T00:50:01;101560.0;;;10.222222222222221;100.0
64862;BME280;62652;42.274;-71.436;2023-04-26T00:51:01;101560.0;;;10.222222222222221;100.0
64862;BME280;62652;42.274;-71.436;2023-04-26T00:52:01;101560.0;;;10.222222222222221;100.0
64862;BME280;62652;42.274;-71.436;2023-04-26T00:53:01;101570.0;;;10.222222222222221;100.0
64862;BME280;62652;42.274;-71.436;2023-04-26T00:54:00;101570.0;;;10.222222222222221;100.0
64862;BME280;62652;42.274;-71.436;2023-04-26T00:55:01;101570.0;;;10.222222222222221;100.0
64862;BME280;62652;42.274;-71.436;2023-04-26T00:56:01;101570.0;;;10.222222222222221;100.0
64862;BME280;62652;42.274;-71.436;2023-04-26T00:57:01;101570.0;;;10.222222222222221;100.0
64862;BME280;62652;42.274;-71.436;2023-04-26T00:58:01;101560.0;;;10.222222222222221;100.0
64862;BME280;62652;42.274;-71.436;2023-04-26T00:59:01;101560.0;;;10.277777777777779;100.0
64862;BME280;62652;42.274;-71.436;2023-04-26T01:00:00;101560.0;;;10.222222222222221;100.0
64862;BME280;62652;42.274;-71.436;2023-04-26T01:01:00;101560.0;;;10.222222222222221;100.0
64862;BME280;62652;42.274;-71.436;2023-04-26T01:02:02;101560.0;;;10.111111111111112;100.0
64862;BME280;62652;42.274;-71.436;2023-04-26T01:03:01;101570.0;;;10.111111111111112;100.0
64862;BME280;62652;42.274;-71.436;2023-04-26T01:04:01;101560.0;;;10.111111111111112;100.0
64862;BME280;62652;42.274;-71.436;2023-04-26T01:05:00;101570.0;;;10.111111111111112;100.0
64862;BME280;62652;42.274;-71.436;2023-04-26T01:06:00;101570.0;;;10.111111111111112;100.0
64862;BME280;62652;42.274;-71.436;2023-04-26T01:07:00;101560.0;;;10.111111111111112;100.0
64862;BME280;62652;42.274;-71.436;2023-04-26T01:08:01;101570.0;;;10.111111111111112;100.0
64862;BME280;62652;42.274;-71.436;2023-04-26T01:09:02;101570.0;;;10.111111111111112;100.0
64862;BME280;62652;42.274;-71.436;2023-04-26T01:10:01;101560.0;;;10.111111111111112;100.0
64862;BME280;62652;42.274;-71.436;2023-04-26T01:11:01;101570.0;;;10.111111111111112;100.0
64862;BME280;62652;42.274;-71.436;2023-04-26T01:12:01;101560.0;;;10.0;100.0
64862;BME280;62652;42.274;-71.436;2023-04-26T01:13:01;101560.0;;;10.0;100.0
64862;BME280;62652;42.274;-71.436;2023-04-26T01:14:01;101560.0;;;9.777777777777779;100.0
64862;BME280;62652;42.274;-71.436;2023-04-26T01:15:01;101560.0;;;9.777777777777779;100.0
64862;BME280;62652;42.274;-71.436;2023-04-26T01:16:01;101550.0;;;9.888888888888888;100.0
64862;BME280;62652;42.274;-71.436;2023-04-26T01:17:01;101560.0;;;9.888888888888888;100.0
64862;BME280;62652;42.274;-71.436;2023-04-26T01:18:00;101570.0;;;10.0;100.0
64862;BME280;62652;42.274;-71.436;2023-04-26T01:19:07;101570.0;;;10.0;100.0
64862;BME280;62652;42.274;-71.436;2023-04-26T01:20:01;101570.0;;;10.0;100.0
64862;BME280;62652;42.274;-71.436;2023-04-26T01:21:00;101580.0;;;9.888888888888888;100.0
64862;BME280;62652;42.274;-71.436;2023-04-26T01:22:00;101570.0;;;9.888888888888888;100.0
64862;BME280;62652;42.274;-71.436;2023-04-26T01:23:00;101580.0;;;9.888888888888888;100.0
64862;BME280;62652;42.274;-71.436;2023-04-26T01:24:01;101580.0;;;10.0;100.0
64862;BME280;62652;42.274;-71.436;2023-04-26T01:25:03;101580.0;;;10.0;100.0
64862;BME280;62652;42.274;-71.436;2023-04-26T01:26:00;101570.0;;;10.0;100.0
64862;BME280;62652;42.274;-71.436;2023-04-26T01:27:01;101580.0;;;10.0;100.0
64862;BME280;62652;42.274;-71.436;2023-04-26T01:28:01;101580.0;;;10.0;100.0
64862;BME280;62652;42.274;-71.436;2023-04-26T01:29:12;101580.0;;;10.0;100.0
64862;BME280;62652;42.274;-71.436;2023-04-26T01:30:01;101590.0;;;10.0;100.0
64862;BME280;62652;42.274;-71.436;2023-04-26T01:31:00;101590.0;;;9.888888888888888;100.0
64862;BME280;62652;42.274;-71.436;2023-04-26T01:32:00;101590.0;;;9.888888888888888;100.0
64862;BME280;62652;42.274;-71.436;2023-04-26T01:33:01;101590.0;;;9.888888888888888;100.0
64862;BME280;62652;42.274;-71.436;2023-04-26T01:34:01;101590.0;;;9.888888888888888;100.0
64862;BME280;62652;42.274;-71.436;2023-04-26T01:35:01;101590.0;;;9.888888888888888;100.0
64862;BME280;62652;42.274;-71.436;2023-04-26T01:36:01;101590.0;;;9.777777777777779;100.0
64862;BME280;62652;42.274;-71.436;2023-04-26T01:37:00;101580.0;;;9.777777777777779;100.0
64862;BME280;62652;42.274;-71.436;2023-04-26T01:38:00;101580.0;;;9.777777777777779;100.0
64862;BME280;62652;42.274;-71.436;2023-04-26T01:39:00;101580.0;;;9.777777777777779;100.0
64862;BME280;62652;42.274;-71.436;2023-04-26T01:40:00;101590.0;;;9.777777777777779;100.0
64862;BME280;62652;42.274;-71.436;2023-04-26T01:41:01;101580.0;;;9.777777777777779;100.0
64862;BME280;62652;42.274;-71.436;2023-04-26T01:42:00;101580.0;;;9.722222222222221;100.0
64862;BME280;62652;42.274;-71.436;2023-04-26T01:43:00;101580.0;;;9.722222222222221;100.0
64862;BME280;62652;42.274;-71.436;2023-04-26T01:44:01;101580.0;;;9.722222222222221;100.0
64862;BME280;62652;42.274;-71.436;2023-04-26T01:45:01;101590.0;;;9.611111111111109;100.0
64862;BME280;62652;42.274;-71.436;2023-04-26T01:46:01;101590.0;;;9.5;100.0
64862;BME280;62652;42.274;-71.436;2023-04-26T01:47:01;101590.0;;;9.611111111111109;100.0
64862;BME280;62652;42.274;-71.436;2023-04-26T01:48:00;101590.0;;;9.611111111111109;100.0
64862;BME280;62652;42.274;-71.436;2023-04-26T01:49:01;101590.0;;;9.611111111111109;100.0
64862;BME280;62652;42.274;-71.436;2023-04-26T01:50:01;101590.0;;;9.611111111111109;100.0
64862;BME280;62652;42.274;-71.436;2023-04-26T01:51:01;101590.0;;;9.722222222222221;100.0
64862;BME280;62652;42.274;-71.436;2023-04-26T01:52:02;101590.0;;;9.722222222222221;100.0
64862;BME280;62652;42.274;-71.436;2023-04-26T01:53:00;101600.0;;;9.722222222222221;100.0
64862;BME280;62652;42.274;-71.436;2023-04-26T01:54:00;101590.0;;;9.722222222222221;100.0
64862;BME280;62652;42.274;-71.436;2023-04-26T01:55:01;101590.0;;;9.722222222222221;100.0
64862;BME280;62652;42.274;-71.436;2023-04-26T01:56:01;101590.0;;;9.722222222222221;100.0
64862;BME280;62652;42.274;-71.436;2023-04-26T01:57:00;101590.0;;;9.722222222222221;100.0
64862;BME280;62652;42.274;-71.436;2023-04-26T01:58:00;101590.0;;;9.611111111111109;100.0
64862;BME280;62652;42.274;-71.436;2023-04-26T01:59:01;101590.0;;;9.611111111111109;100.0
64862;BME280;62652;42.274;-71.436;2023-04-26T02:00:01;101600.0;;;9.611111111111109;100.0
64862;BME280;62652;42.274;-71.436;2023-04-26T02:01:05;101600.0;;;9.611111111111109;100.0
64862;BME280;62652;42.274;-71.436;2023-04-26T02:02:01;101590.0;;;9.611111111111109;100.0
64862;BME280;62652;42.274;-71.436;2023-04-26T02:03:01;101600.0;;;9.611111111111109;100.0
64862;BME280;62652;42.274;-71.436;2023-04-26T02:04:00;101600.0;;;9.611111111111109;100.0
64862;BME280;62652;42.274;-71.436;2023-04-26T02:05:00;101600.0;;;9.611111111111109;100.0
64862;BME280;62652;42.274;-71.436;2023-04-26T02:06:01;101600.0;;;9.611111111111109;100.0
64862;BME280;62652;42.274;-71.436;2023-04-26T02:07:01;101600.0;;;9.611111111111109;100.0
64862;BME280;62652;42.274;-71.436;2023-04-26T02:08:00;101600.0;;;9.722222222222221;100.0
64862;BME280;62652;42.274;-71.436;2023-04-26T02:09:00;101600.0;;;9.722222222222221;100.0
64862;BME280;62652;42.274;-71.436;2023-04-26T02:10:00;101600.0;;;9.722222222222221;100.0
64862;BME280;62652;42.274;-71.436;2023-04-26T02:11:00;101600.0;;;9.722222222222221;100.0
64862;BME280;62652;42.274;-71.436;2023-04-26T02:12:00;101600.0;;;9.722222222222221;100.0
64862;BME280;62652;42.274;-71.436;2023-04-26T02:13:01;101600.0;;;9.722222222222221;100.0
64862;BME280;62652;42.274;-71.436;2023-04-26T02:14:01;101600.0;;;9.722222222222221;100.0
64862;BME280;62652;42.274;-71.436;2023-04-26T02:15:00;101600.0;;;9.722222222222221;100.0
64862;BME280;62652;42.274;-71.436;2023-04-26T02:16:00;101600.0;;;9.722222222222221;100.0
64862;BME280;62652;42.274;-71.436;2023-04-26T02:17:01;101600.0;;;9.722222222222221;100.0
64862;BME280;62652;42.274;-71.436;2023-04-26T02:18:00;101600.0;;;9.722222222222221;100.0
64862;BME280;62652;42.274;-71.436;2023-04-26T02:19:01;101600.0;;;9.722222222222221;100.0
64862;BME280;62652;42.274;-71.436;2023-04-26T02:20:00;101600.0;;;9.722222222222221;100.0
64862;BME280;62652;42.274;-71.436;2023-04-26T02:21:00;101600.0;;;9.722222222222221;100.0
64862;BME280;62652;42.274;-71.436;2023-04-26T02:22:00;101600.0;;;9.722222222222221;100.0
64862;BME280;62652;42.274;-71.436;2023-04-26T02:23:01;101600.0;;;9.722222222222221;100.0
64862;BME280;62652;42.274;-71.436;2023-04-26T02:24:01;101600.0;;;9.611111111111109;100.0
64862;BME280;62652;42.274;-71.436;2023-04-26T02:25:01;101600.0;;;9.722222222222221;100.0
64862;BME280;62652;42.274;-71.436;2023-04-26T02:26:00;101600.0;;;9.611111111111109;100.0
64862;BME280;62652;42.274;-71.436;2023-04-26T02:27:00;101610.0;;;9.611111111111109;100.0
64862;BME280;62652;42.274;-71.436;2023-04-26T02:28:00;101610.0;;;9.5;100.0
64862;BME280;62652;42.274;-71.436;2023-04-26T02:29:00;101610.0;;;9.5;100.0
64862;BME280;62652;42.274;-71.436;2023-04-26T02:30:01;101620.0;;;9.5;100.0
64862;BME280;62652;42.274;-71.436;2023-04-26T02:31:01;101610.0;;;9.5;100.0
64862;BME280;62652;42.274;-71.436;2023-04-26T02:32:00;101610.0;;;9.5;100.0
64862;BME280;62652;42.274;-71.436;2023-04-26T02:33:00;101620.0;;;9.5;100.0
64862;BME280;62652;42.274;-71.436;2023-04-26T02:34:00;101620.0;;;9.5;100.0
64862;BME280;62652;42.274;-71.436;2023-04-26T02:35:00;101610.0;;;9.5;100.0
64862;BME280;62652;42.274;-71.436;2023-04-26T02:36:02;101620.0;;;9.5;100.0
64862;BME280;62652;42.274;-71.436;2023-04-26T02:37:01;101620.0;;;9.5;100.0
64862;BME280;62652;42.274;-71.436;2023-04-26T02:38:00;101620.0;;;9.5;100.0
64862;BME280;62652;42.274;-71.436;2023-04-26T02:39:00;101620.0;;;9.5;100.0
64862;BME280;62652;42.274;-71.436;2023-04-26T02:40:00;101620.0;;;9.38888888888889;100.0
64862;BME280;62652;42.274;-71.436;2023-04-26T02:41:01;101620.0;;;9.38888888888889;100.0
64862;BME280;62652;42.274;-71.436;2023-04-26T02:42:01;101620.0;;;9.38888888888889;100.0
64862;BME280;62652;42.274;-71.436;2023-04-26T02:43:00;101620.0;;;9.38888888888889;100.0
64862;BME280;62652;42.274;-71.436;2023-04-26T02:44:00;101630.0;;;9.38888888888889;100.0
64862;BME280;62652;42.274;-71.436;2023-04-26T02:45:00;101620.0;;;9.38888888888889;100.0
64862;BME280;62652;42.274;-71.436;2023-04-26T02:46:00;101620.0;;;9.277777777777779;100.0
64862;BME280;62652;42.274;-71.436;2023-04-26T02:47:01;101630.0;;;9.277777777777779;100.0
64862;BME280;62652;42.274;-71.436;2023-04-26T02:48:01;101630.0;;;9.222222222222221;100.0
64862;BME280;62652;42.274;-71.436;2023-04-26T02:49:00;101630.0;;;9.222222222222221;100.0
64862;BME280;62652;42.274;-71.436;2023-04-26T02:50:01;101630.0;;;9.222222222222221;100.0
64862;BME280;62652;42.274;-71.436;2023-04-26T02:51:01;101630.0;;;9.222222222222221;100.0
64862;BME280;62652;42.274;-71.436;2023-04-26T02:52:01;101630.0;;;9.11111111111111;100.0
64862;BME280;62652;42.274;-71.436;2023-04-26T02:53:01;101630.0;;;9.11111111111111;100.0
64862;BME280;62652;42.274;-71.436;2023-04-26T02:54:00;101630.0;;;9.000000000000002;100.0
64862;BME280;62652;42.274;-71.436;2023-04-26T02:55:01;101630.0;;;9.000000000000002;100.0
64862;BME280;62652;42.274;-71.436;2023-04-26T02:56:01;101630.0;;;9.000000000000002;100.0
64862;BME280;62652;42.274;-71.436;2023-04-26T02:57:01;101630.0;;;8.88888888888889;100.0
64862;BME280;62652;42.274;-71.436;2023-04-26T02:58:01;101630.0;;;8.88888888888889;100.0
64862;BME280;62652;42.274;-71.436;2023-04-26T02:59:00;101630.0;;;8.777777777777777;100.0
64862;BME280;62652;42.274;-71.436;2023-04-26T03:00:01;101640.0;;;8.777777777777777;100.0
64862;BME280;62652;42.274;-71.436;2023-04-26T03:01:00;101640.0;;;8.88888888888889;100.0
64862;BME280;62652;42.274;-71.436;2023-04-26T03:02:00;101630.0;;;9.000000000000002;100.0
64862;BME280;62652;42.274;-71.436;2023-04-26T03:03:01;101630.0;;;9.000000000000002;100.0
64862;BME280;62652;42.274;-71.436;2023-04-26T03:04:01;101630.0;;;9.000000000000002;100.0
64862;BME280;62652;42.274;-71.436;2023-04-26T03:05:00;101640.0;;;8.88888888888889;100.0
64862;BME280;62652;42.274;-71.436;2023-04-26T03:06:01;101640.0;;;9.000000000000002;100.0
64862;BME280;62652;42.274;-71.436;2023-04-26T03:07:01;101640.0;;;9.000000000000002;100.0
64862;BME280;62652;42.274;-71.436;2023-04-26T03:08:00;101640.0;;;9.000000000000002;100.0
64862;BME280;62652;42.274;-71.436;2023-04-26T03:09:01;101640.0;;;8.88888888888889;100.0
64862;BME280;62652;42.274;-71.436;2023-04-26T03:10:01;101640.0;;;9.000000000000002;100.0
64862;BME280;62652;42.274;-71.436;2023-04-26T03:11:00;101640.0;;;8.88888888888889;100.0
64862;BME280;62652;42.274;-71.436;2023-04-26T03:12:00;101640.0;;;8.88888888888889;100.0
64862;BME280;62652;42.274;-71.436;2023-04-26T03:13:00;101640.0;;;8.88888888888889;100.0
64862;BME280;62652;42.274;-71.436;2023-04-26T03:14:00;101640.0;;;8.88888888888889;100.0
64862;BME280;62652;42.274;-71.436;2023-04-26T03:15:01;101640.0;;;9.000000000000002;100.0
64862;BME280;62652;42.274;-71.436;2023-04-26T03:16:00;101640.0;;;9.000000000000002;100.0
64862;BME280;62652;42.274;-71.436;2023-04-26T03:17:01;101640.0;;;8.88888888888889;100.0
64862;BME280;62652;42.274;-71.436;2023-04-26T03:18:00;101640.0;;;9.000000000000002;100.0
64862;BME280;62652;42.274;-71.436;2023-04-26T03:19:00;101640.0;;;8.88888888888889;100.0
64862;BME280;62652;42.274;-71.436;2023-04-26T03:20:01;101650.0;;;8.88888888888889;100.0
64862;BME280;62652;42.274;-71.436;2023-04-26T03:21:00;101650.0;;;9.000000000000002;100.0
64862;BME280;62652;42.274;-71.436;2023-04-26T03:22:00;101650.0;;;9.000000000000002;100.0
64862;BME280;62652;42.274;-71.436;2023-04-26T03:23:00;101650.0;;;9.000000000000002;100.0
64862;BME280;62652;42.274;-71.436;2023-04-26T03:24:00;101650.0;;;9.000000000000002;100.0
64862;BME280;62652;42.274;-71.436;2023-04-26T03:25:00;101650.0;;;9.000000000000002;100.0
64862;BME280;62652;42.274;-71.436;2023-04-26T03:26:01;101650.0;;;9.000000000000002;100.0
64862;BME280;62652;42.274;-71.436;2023-04-26T03:27:01;101650.0;;;9.000000000000002;100.0
64862;BME280;62652;42.274;-71.436;2023-04-26T03:28:01;101650.0;;;9.000000000000002;100.0
64862;BME280;62652;42.274;-71.436;2023-04-26T03:29:01;101650.0;;;9.000000000000002;100.0
64862;BME280;62652;42.274;-71.436;2023-04-26T03:30:01;101650.0;;;9.000000000000002;100.0
64862;BME280;62652;42.274;-71.436;2023-04-26T03:31:01;101650.0;;;9.11111111111111;100.0
64862;BME280;62652;42.274;-71.436;2023-04-26T03:32:00;101650.0;;;9.11111111111111;100.0
64862;BME280;62652;42.274;-71.436;2023-04-26T03:33:00;101650.0;;;9.11111111111111;100.0
64862;BME280;62652;42.274;-71.436;2023-04-26T03:34:01;101660.0;;;9.11111111111111;100.0
64862;BME280;62652;42.274;-71.436;2023-04-26T03:35:00;101650.0;;;9.000000000000002;100.0
64862;BME280;62652;42.274;-71.436;2023-04-26T03:36:01;101660.0;;;9.000000000000002;100.0
64862;BME280;62652;42.274;-71.436;2023-04-26T03:37:01;101660.0;;;9.000000000000002;100.0
64862;BME280;62652;42.274;-71.436;2023-04-26T03:38:00;101660.0;;;9.000000000000002;100.0
64862;BME280;62652;42.274;-71.436;2023-04-26T03:39:01;101660.0;;;9.000000000000002;100.0
64862;BME280;62652;42.274;-71.436;2023-04-26T03:40:01;101660.0;;;9.000000000000002;100.0
64862;BME280;62652;42.274;-71.436;2023-04-26T03:41:00;101660.0;;;8.88888888888889;100.0
64862;BME280;62652;42.274;-71.436;2023-04-26T03:42:01;101660.0;;;8.88888888888889;100.0
64862;BME280;62652;42.274;-71.436;2023-04-26T03:43:01;101660.0;;;8.88888888888889;100.0
64862;BME280;62652;42.274;-71.436;2023-04-26T03:44:00;101660.0;;;8.88888888888889;100.0
64862;BME280;62652;42.274;-71.436;2023-04-26T03:45:01;101660.0;;;8.88888888888889;100.0
64862;BME280;62652;42.274;-71.436;2023-04-26T03:46:00;101670.0;;;8.777777777777777;100.0
64862;BME280;62652;42.274;-71.436;2023-04-26T03:47:00;101670.0;;;8.88888888888889;100.0
64862;BME280;62652;42.274;-71.436;2023-04-26T03:48:01;101670.0;;;8.88888888888889;100.0
64862;BME280;62652;42.274;-71.436;2023-04-26T03:49:00;101670.0;;;8.88888888888889;100.0
64862;BME280;62652;42.274;-71.436;2023-04-26T03:50:00;101660.0;;;8.88888888888889;100.0
64862;BME280;62652;42.274;-71.436;2023-04-26T03:51:00;101670.0;;;8.88888888888889;100.0
64862;BME280;62652;42.274;-71.436;2023-04-26T03:52:00;101670.0;;;8.88888888888889;100.0
64862;BME280;62652;42.274;-71.436;2023-04-26T03:53:01;101670.0;;;8.88888888888889;100.0
64862;BME280;62652;42.274;-71.436;2023-04-26T03:54:01;101670.0;;;8.88888888888889;100.0
64862;BME280;62652;42.274;-71.436;2023-04-26T03:55:01;101670.0;;;8.88888888888889;100.0
64862;BME280;62652;42.274;-71.436;2023-04-26T03:56:01;101670.0;;;8.88888888888889;100.0
64862;BME280;62652;42.274;-71.436;2023-04-26T03:57:00;101670.0;;;8.88888888888889;100.0
64862;BME280;62652;42.274;-71.436;2023-04-26T03:58:01;101670.0;;;8.88888888888889;100.0
64862;BME280;62652;42.274;-71.436;2023-04-26T03:59:00;101670.0;;;8.88888888888889;100.0
64862;BME280;62652;42.274;-71.436;2023-04-26T04:00:00;101670.0;;;8.88888888888889;100.0
64862;BME280;62652;42.274;-71.436;2023-04-26T04:01:00;101670.0;;;8.88888888888889;100.0
64862;BME280;62652;42.274;-71.436;2023-04-26T04:02:00;101670.0;;;8.88888888888889;100.0
64862;BME280;62652;42.274;-71.436;2023-04-26T04:03:00;101670.0;;;8.88888888888889;100.0
64862;BME280;62652;42.274;-71.436;2023-04-26T04:04:01;101670.0;;;8.88888888888889;100.0
64862;BME280;62652;42.274;-71.436;2023-04-26T04:05:00;101670.0;;;8.88888888888889;100.0
64862;BME280;62652;42.274;-71.436;2023-04-26T04:06:01;101680.0;;;8.88888888888889;100.0
64862;BME280;62652;42.274;-71.436;2023-04-26T04:07:00;101670.0;;;8.88888888888889;100.0
64862;BME280;62652;42.274;-71.436;2023-04-26T04:08:00;101670.0;;;8.88888888888889;100.0
64862;BME280;62652;42.274;-71.436;2023-04-26T04:09:00;101670.0;;;8.88888888888889;100.0
64862;BME280;62652;42.274;-71.436;2023-04-26T04:10:00;101670.0;;;8.88888888888889;100.0
64862;BME280;62652;42.274;-71.436;2023-04-26T04:11:01;101670.0;;;8.88888888888889;100.0
64862;BME280;62652;42.274;-71.436;2023-04-26T04:12:00;101670.0;;;8.88888888888889;100.0
64862;BME280;62652;42.274;-71.436;2023-04-26T04:13:00;101670.0;;;8.88888888888889;100.0
64862;BME280;62652;42.274;-71.436;2023-04-26T04:14:00;101670.0;;;8.88888888888889;100.0
64862;BME280;62652;42.274;-71.436;2023-04-26T04:15:01;101680.0;;;8.88888888888889;100.0
64862;BME280;62652;42.274;-71.436;2023-04-26T04:16:00;101670.0;;;8.777777777777777;100.0
64862;BME280;62652;42.274;-71.436;2023-04-26T04:17:00;101680.0;;;8.777777777777777;100.0
64862;BME280;62652;42.274;-71.436;2023-04-26T04:18:01;101680.0;;;8.777777777777777;100.0
64862;BME280;62652;42.274;-71.436;2023-04-26T04:19:01;101680.0;;;8.777777777777777;100.0
64862;BME280;62652;42.274;-71.436;2023-04-26T04:20:01;101680.0;;;8.777777777777777;100.0
64862;BME280;62652;42.274;-71.436;2023-04-26T04:21:01;101680.0;;;8.777777777777777;100.0
64862;BME280;62652;42.274;-71.436;2023-04-26T04:22:00;101680.0;;;8.777777777777777;100.0
64862;BME280;62652;42.274;-71.436;2023-04-26T04:23:00;101680.0;;;8.777777777777777;100.0
64862;BME280;62652;42.274;-71.436;2023-04-26T04:24:00;101680.0;;;8.777777777777777;100.0
64862;BME280;62652;42.274;-71.436;2023-04-26T04:25:01;101680.0;;;8.777777777777777;100.0
64862;BME280;62652;42.274;-71.436;2023-04-26T04:26:01;101680.0;;;8.88888888888889;100.0
64862;BME280;62652;42.274;-71.436;2023-04-26T04:27:00;101690.0;;;8.88888888888889;100.0
64862;BME280;62652;42.274;-71.436;2023-04-26T04:28:01;101680.0;;;8.88888888888889;100.0
64862;BME280;62652;42.274;-71.436;2023-04-26T04:29:01;101680.0;;;8.88888888888889;100.0
64862;BME280;62652;42.274;-71.436;2023-04-26T04:30:01;101680.0;;;8.88888888888889;100.0
64862;BME280;62652;42.274;-71.436;2023-04-26T04:31:00;101680.0;;;8.88888888888889;100.0